sensor_id;sensor_type;location;lat;lon;timestamp;P1;durP1;ratioP1;P2;durP2;ratioP2
14100;SDS011;7127;49.372;8.166;2024-03-22T00:00:17;2.03;;;1.70;;
14100;SDS011;7127;49.372;8.166;2024-03-22T00:02:42;1.70;;;1.50;;
14100;SDS011;7127;49.372;8.166;2024-03-22T00:05:09;2.47;;;1.80;;
14100;SDS011;7127;49.372;8.166;2024-03-22T00:07:35;2.00;;;1.80;;
14100;SDS011;7127;49.372;8.166;2024-03-22T00:10:03;2.40;;;1.60;;
14100;SDS011;7127;49.372;8.166;2024-03-22T00:12:30;2.03;;;1.50;;
14100;SDS011;7127;49.372;8.166;2024-03-22T00:14:58;1.87;;;1.53;;
14100;SDS011;7127;49.372;8.166;2024-03-22T00:17:24;1.60;;;1.40;;
14100;SDS011;7127;49.372;8.166;2024-03-22T00:19:50;1.30;;;1.20;;
14100;SDS011;7127;49.372;8.166;2024-03-22T00:22:16;2.33;;;1.50;;
14100;SDS011;7127;49.372;8.166;2024-03-22T00:24:43;1.20;;;1.10;;
14100;SDS011;7127;49.372;8.166;2024-03-22T00:27:09;1.40;;;1.30;;
14100;SDS011;7127;49.372;8.166;2024-03-22T00:29:36;1.17;;;1.07;;
14100;SDS011;7127;49.372;8.166;2024-03-22T00:32:04;2.30;;;1.30;;
14100;SDS011;7127;49.372;8.166;2024-03-22T00:34:32;1.40;;;1.30;;
14100;SDS011;7127;49.372;8.166;2024-03-22T00:36:58;1.40;;;1.30;;
14100;SDS011;7127;49.372;8.166;2024-03-22T00:39:25;1.33;;;1.20;;
14100;SDS011;7127;49.372;8.166;2024-03-22T00:41:50;1.27;;;1.17;;
14100;SDS011;7127;49.372;8.166;2024-03-22T00:44:17;3.30;;;1.70;;
14100;SDS011;7127;49.372;8.166;2024-03-22T00:46:43;2.60;;;2.20;;
14100;SDS011;7127;49.372;8.166;2024-03-22T00:49:11;2.27;;;1.90;;
14100;SDS011;7127;49.372;8.166;2024-03-22T00:51:38;1.70;;;1.60;;
14100;SDS011;7127;49.372;8.166;2024-03-22T00:54:04;2.40;;;1.50;;
14100;SDS011;7127;49.372;8.166;2024-03-22T00:56:30;1.50;;;1.40;;
14100;SDS011;7127;49.372;8.166;2024-03-22T00:58:57;1.80;;;1.40;;
14100;SDS011;7127;49.372;8.166;2024-03-22T01:01:23;1.67;;;1.40;;
14100;SDS011;7127;49.372;8.166;2024-03-22T01:03:49;1.37;;;1.27;;
14100;SDS011;7127;49.372;8.166;2024-03-22T01:06:16;1.20;;;1.10;;
14100;SDS011;7127;49.372;8.166;2024-03-22T01:08:48;1.40;;;1.20;;
14100;SDS011;7127;49.372;8.166;2024-03-22T01:11:14;1.50;;;1.40;;
14100;SDS011;7127;49.372;8.166;2024-03-22T01:13:41;1.97;;;1.77;;
14100;SDS011;7127;49.372;8.166;2024-03-22T01:16:06;3.00;;;2.07;;
14100;SDS011;7127;49.372;8.166;2024-03-22T01:18:34;2.40;;;2.00;;
14100;SDS011;7127;49.372;8.166;2024-03-22T01:21:00;2.17;;;1.70;;
14100;SDS011;7127;49.372;8.166;2024-03-22T01:23:29;2.30;;;2.10;;
14100;SDS011;7127;49.372;8.166;2024-03-22T01:25:55;3.03;;;1.60;;
14100;SDS011;7127;49.372;8.166;2024-03-22T01:28:22;1.60;;;1.50;;
14100;SDS011;7127;49.372;8.166;2024-03-22T01:30:48;1.87;;;1.60;;
14100;SDS011;7127;49.372;8.166;2024-03-22T01:33:14;1.67;;;1.40;;
14100;SDS011;7127;49.372;8.166;2024-03-22T01:35:40;1.40;;;1.30;;
14100;SDS011;7127;49.372;8.166;2024-03-22T01:38:07;1.60;;;1.50;;
14100;SDS011;7127;49.372;8.166;2024-03-22T01:40:34;1.63;;;1.30;;
14100;SDS011;7127;49.372;8.166;2024-03-22T01:43:01;1.73;;;1.40;;
14100;SDS011;7127;49.372;8.166;2024-03-22T01:45:27;1.97;;;1.40;;
14100;SDS011;7127;49.372;8.166;2024-03-22T01:47:58;1.67;;;1.33;;
14100;SDS011;7127;49.372;8.166;2024-03-22T01:50:24;1.30;;;1.20;;
14100;SDS011;7127;49.372;8.166;2024-03-22T01:52:51;1.40;;;1.30;;
14100;SDS011;7127;49.372;8.166;2024-03-22T01:55:17;1.30;;;1.20;;
14100;SDS011;7127;49.372;8.166;2024-03-22T01:57:46;2.87;;;1.40;;
14100;SDS011;7127;49.372;8.166;2024-03-22T02:00:13;1.70;;;1.60;;
14100;SDS011;7127;49.372;8.166;2024-03-22T02:02:40;1.80;;;1.70;;
14100;SDS011;7127;49.372;8.166;2024-03-22T02:05:12;2.30;;;1.90;;
14100;SDS011;7127;49.372;8.166;2024-03-22T02:07:40;3.50;;;2.30;;
14100;SDS011;7127;49.372;8.166;2024-03-22T02:10:06;4.13;;;2.30;;
14100;SDS011;7127;49.372;8.166;2024-03-22T02:12:35;1.87;;;1.70;;
14100;SDS011;7127;49.372;8.166;2024-03-22T02:15:03;2.10;;;1.80;;
14100;SDS011;7127;49.372;8.166;2024-03-22T02:17:31;1.63;;;1.50;;
14100;SDS011;7127;49.372;8.166;2024-03-22T02:19:58;1.40;;;1.30;;
14100;SDS011;7127;49.372;8.166;2024-03-22T02:22:25;1.50;;;1.40;;
14100;SDS011;7127;49.372;8.166;2024-03-22T02:24:53;1.80;;;1.30;;
14100;SDS011;7127;49.372;8.166;2024-03-22T02:27:20;1.60;;;1.27;;
14100;SDS011;7127;49.372;8.166;2024-03-22T02:29:45;1.30;;;1.20;;
14100;SDS011;7127;49.372;8.166;2024-03-22T02:32:12;1.20;;;1.10;;
14100;SDS011;7127;49.372;8.166;2024-03-22T02:34:38;1.60;;;1.50;;
14100;SDS011;7127;49.372;8.166;2024-03-22T02:37:05;2.03;;;1.70;;
14100;SDS011;7127;49.372;8.166;2024-03-22T02:39:31;1.50;;;1.40;;
14100;SDS011;7127;49.372;8.166;2024-03-22T02:41:59;1.57;;;1.43;;
14100;SDS011;7127;49.372;8.166;2024-03-22T02:44:26;1.83;;;1.60;;
14100;SDS011;7127;49.372;8.166;2024-03-22T02:46:51;2.23;;;1.40;;
14100;SDS011;7127;49.372;8.166;2024-03-22T02:49:18;1.97;;;1.40;;
14100;SDS011;7127;49.372;8.166;2024-03-22T02:51:44;1.40;;;1.30;;
14100;SDS011;7127;49.372;8.166;2024-03-22T02:54:11;1.30;;;1.20;;
14100;SDS011;7127;49.372;8.166;2024-03-22T02:56:36;2.87;;;1.50;;
14100;SDS011;7127;49.372;8.166;2024-03-22T02:59:04;2.33;;;1.63;;
14100;SDS011;7127;49.372;8.166;2024-03-22T03:01:30;1.63;;;1.53;;
14100;SDS011;7127;49.372;8.166;2024-03-22T03:03:57;1.43;;;1.33;;
14100;SDS011;7127;49.372;8.166;2024-03-22T03:06:23;1.80;;;1.33;;
14100;SDS011;7127;49.372;8.166;2024-03-22T03:08:49;1.80;;;1.40;;
14100;SDS011;7127;49.372;8.166;2024-03-22T03:11:15;1.73;;;1.47;;
14100;SDS011;7127;49.372;8.166;2024-03-22T03:13:42;1.50;;;1.40;;
14100;SDS011;7127;49.372;8.166;2024-03-22T03:16:09;2.77;;;2.50;;
14100;SDS011;7127;49.372;8.166;2024-03-22T03:18:36;3.23;;;2.13;;
14100;SDS011;7127;49.372;8.166;2024-03-22T03:21:02;1.73;;;1.50;;
14100;SDS011;7127;49.372;8.166;2024-03-22T03:23:28;1.40;;;1.30;;
14100;SDS011;7127;49.372;8.166;2024-03-22T03:25:54;1.40;;;1.30;;
14100;SDS011;7127;49.372;8.166;2024-03-22T03:28:21;1.90;;;1.70;;
14100;SDS011;7127;49.372;8.166;2024-03-22T03:30:47;2.53;;;1.70;;
14100;SDS011;7127;49.372;8.166;2024-03-22T03:33:15;1.40;;;1.30;;
14100;SDS011;7127;49.372;8.166;2024-03-22T03:35:44;2.63;;;1.37;;
14100;SDS011;7127;49.372;8.166;2024-03-22T03:38:11;1.37;;;1.20;;
14100;SDS011;7127;49.372;8.166;2024-03-22T03:40:37;1.33;;;1.10;;
14100;SDS011;7127;49.372;8.166;2024-03-22T03:43:04;1.83;;;1.50;;
14100;SDS011;7127;49.372;8.166;2024-03-22T03:45:30;1.60;;;1.43;;
14100;SDS011;7127;49.372;8.166;2024-03-22T03:47:56;1.93;;;1.73;;
14100;SDS011;7127;49.372;8.166;2024-03-22T03:50:23;1.70;;;1.60;;
14100;SDS011;7127;49.372;8.166;2024-03-22T03:52:50;3.10;;;2.13;;
14100;SDS011;7127;49.372;8.166;2024-03-22T03:55:16;3.00;;;2.10;;
14100;SDS011;7127;49.372;8.166;2024-03-22T03:57:42;2.50;;;2.10;;
14100;SDS011;7127;49.372;8.166;2024-03-22T04:00:09;1.70;;;1.60;;
14100;SDS011;7127;49.372;8.166;2024-03-22T04:02:36;1.37;;;1.27;;
14100;SDS011;7127;49.372;8.166;2024-03-22T04:05:01;1.73;;;1.60;;
14100;SDS011;7127;49.372;8.166;2024-03-22T04:07:30;1.77;;;1.50;;
14100;SDS011;7127;49.372;8.166;2024-03-22T04:09:55;1.57;;;1.40;;
14100;SDS011;7127;49.372;8.166;2024-03-22T04:12:22;2.13;;;1.33;;
14100;SDS011;7127;49.372;8.166;2024-03-22T04:14:48;1.30;;;1.20;;
14100;SDS011;7127;49.372;8.166;2024-03-22T04:17:14;1.33;;;1.23;;
14100;SDS011;7127;49.372;8.166;2024-03-22T04:19:40;1.30;;;1.20;;
14100;SDS011;7127;49.372;8.166;2024-03-22T04:22:07;2.67;;;1.60;;
14100;SDS011;7127;49.372;8.166;2024-03-22T04:24:34;1.50;;;1.30;;
14100;SDS011;7127;49.372;8.166;2024-03-22T04:27:01;1.63;;;1.40;;
14100;SDS011;7127;49.372;8.166;2024-03-22T04:29:26;1.70;;;1.30;;
14100;SDS011;7127;49.372;8.166;2024-03-22T04:31:53;1.33;;;1.23;;
14100;SDS011;7127;49.372;8.166;2024-03-22T04:34:19;1.40;;;1.30;;
14100;SDS011;7127;49.372;8.166;2024-03-22T04:36:46;1.30;;;1.20;;
14100;SDS011;7127;49.372;8.166;2024-03-22T04:39:11;1.83;;;1.40;;
14100;SDS011;7127;49.372;8.166;2024-03-22T04:41:40;1.60;;;1.20;;
14100;SDS011;7127;49.372;8.166;2024-03-22T04:44:07;2.10;;;1.33;;
14100;SDS011;7127;49.372;8.166;2024-03-22T04:46:33;1.50;;;1.40;;
14100;SDS011;7127;49.372;8.166;2024-03-22T04:48:59;1.73;;;1.50;;
14100;SDS011;7127;49.372;8.166;2024-03-22T04:51:26;2.00;;;1.60;;
14100;SDS011;7127;49.372;8.166;2024-03-22T04:53:52;1.60;;;1.33;;
14100;SDS011;7127;49.372;8.166;2024-03-22T04:56:19;1.97;;;1.50;;
14100;SDS011;7127;49.372;8.166;2024-03-22T04:58:46;1.50;;;1.37;;
14100;SDS011;7127;49.372;8.166;2024-03-22T05:01:12;1.63;;;1.20;;
14100;SDS011;7127;49.372;8.166;2024-03-22T05:03:39;1.60;;;1.50;;
14100;SDS011;7127;49.372;8.166;2024-03-22T05:06:06;2.03;;;1.13;;
14100;SDS011;7127;49.372;8.166;2024-03-22T05:08:32;5.63;;;4.37;;
14100;SDS011;7127;49.372;8.166;2024-03-22T05:10:59;3.53;;;3.03;;
14100;SDS011;7127;49.372;8.166;2024-03-22T05:13:24;2.27;;;1.87;;
14100;SDS011;7127;49.372;8.166;2024-03-22T05:15:53;2.00;;;1.73;;
14100;SDS011;7127;49.372;8.166;2024-03-22T05:18:18;1.50;;;1.37;;
14100;SDS011;7127;49.372;8.166;2024-03-22T05:20:45;1.70;;;1.60;;
14100;SDS011;7127;49.372;8.166;2024-03-22T05:23:11;1.60;;;1.30;;
14100;SDS011;7127;49.372;8.166;2024-03-22T05:25:37;2.13;;;1.40;;
14100;SDS011;7127;49.372;8.166;2024-03-22T05:28:04;1.50;;;1.40;;
14100;SDS011;7127;49.372;8.166;2024-03-22T05:30:31;1.93;;;1.73;;
14100;SDS011;7127;49.372;8.166;2024-03-22T05:32:59;4.03;;;3.57;;
14100;SDS011;7127;49.372;8.166;2024-03-22T05:35:26;3.57;;;2.57;;
14100;SDS011;7127;49.372;8.166;2024-03-22T05:37:52;2.20;;;2.00;;
14100;SDS011;7127;49.372;8.166;2024-03-22T05:40:19;2.00;;;1.70;;
14100;SDS011;7127;49.372;8.166;2024-03-22T05:42:45;1.37;;;1.27;;
14100;SDS011;7127;49.372;8.166;2024-03-22T05:45:11;1.90;;;1.30;;
14100;SDS011;7127;49.372;8.166;2024-03-22T05:47:37;2.20;;;1.20;;
14100;SDS011;7127;49.372;8.166;2024-03-22T05:50:06;1.63;;;1.30;;
14100;SDS011;7127;49.372;8.166;2024-03-22T05:52:33;1.37;;;1.27;;
14100;SDS011;7127;49.372;8.166;2024-03-22T05:55:00;1.43;;;1.20;;
14100;SDS011;7127;49.372;8.166;2024-03-22T05:57:26;1.20;;;1.10;;
14100;SDS011;7127;49.372;8.166;2024-03-22T05:59:53;2.53;;;1.40;;
14100;SDS011;7127;49.372;8.166;2024-03-22T06:02:19;1.30;;;1.20;;
14100;SDS011;7127;49.372;8.166;2024-03-22T06:04:45;1.43;;;1.03;;
14100;SDS011;7127;49.372;8.166;2024-03-22T06:07:13;1.40;;;1.30;;
14100;SDS011;7127;49.372;8.166;2024-03-22T06:09:42;1.67;;;1.30;;
14100;SDS011;7127;49.372;8.166;2024-03-22T06:12:11;1.30;;;1.20;;
14100;SDS011;7127;49.372;8.166;2024-03-22T06:14:37;1.30;;;1.20;;
14100;SDS011;7127;49.372;8.166;2024-03-22T06:17:04;1.37;;;1.27;;
14100;SDS011;7127;49.372;8.166;2024-03-22T06:19:31;1.30;;;1.20;;
14100;SDS011;7127;49.372;8.166;2024-03-22T06:21:57;2.40;;;1.47;;
14100;SDS011;7127;49.372;8.166;2024-03-22T06:24:25;1.90;;;1.60;;
14100;SDS011;7127;49.372;8.166;2024-03-22T06:26:51;1.73;;;1.60;;
14100;SDS011;7127;49.372;8.166;2024-03-22T06:29:17;2.10;;;1.43;;
14100;SDS011;7127;49.372;8.166;2024-03-22T06:31:43;3.57;;;1.30;;
14100;SDS011;7127;49.372;8.166;2024-03-22T06:34:10;1.90;;;1.40;;
14100;SDS011;7127;49.372;8.166;2024-03-22T06:36:36;1.70;;;1.37;;
14100;SDS011;7127;49.372;8.166;2024-03-22T06:39:03;1.20;;;1.10;;
14100;SDS011;7127;49.372;8.166;2024-03-22T06:41:33;1.67;;;1.20;;
14100;SDS011;7127;49.372;8.166;2024-03-22T06:44:00;3.03;;;1.03;;
14100;SDS011;7127;49.372;8.166;2024-03-22T06:46:26;2.47;;;1.10;;
14100;SDS011;7127;49.372;8.166;2024-03-22T06:48:53;1.13;;;1.00;;
14100;SDS011;7127;49.372;8.166;2024-03-22T06:51:19;1.10;;;1.00;;
14100;SDS011;7127;49.372;8.166;2024-03-22T06:53:46;1.23;;;1.03;;
14100;SDS011;7127;49.372;8.166;2024-03-22T06:56:13;1.20;;;1.10;;
14100;SDS011;7127;49.372;8.166;2024-03-22T06:58:41;1.50;;;1.17;;
14100;SDS011;7127;49.372;8.166;2024-03-22T07:01:07;1.30;;;1.20;;
14100;SDS011;7127;49.372;8.166;2024-03-22T07:03:34;1.40;;;1.30;;
14100;SDS011;7127;49.372;8.166;2024-03-22T07:05:59;1.20;;;1.10;;
14100;SDS011;7127;49.372;8.166;2024-03-22T07:08:26;1.30;;;1.20;;
14100;SDS011;7127;49.372;8.166;2024-03-22T07:10:53;2.00;;;1.40;;
14100;SDS011;7127;49.372;8.166;2024-03-22T07:13:20;1.70;;;1.27;;
14100;SDS011;7127;49.372;8.166;2024-03-22T07:15:47;1.83;;;1.30;;
14100;SDS011;7127;49.372;8.166;2024-03-22T07:18:14;2.00;;;1.60;;
14100;SDS011;7127;49.372;8.166;2024-03-22T07:20:40;2.03;;;1.83;;
14100;SDS011;7127;49.372;8.166;2024-03-22T07:23:07;2.20;;;2.00;;
14100;SDS011;7127;49.372;8.166;2024-03-22T07:25:33;3.57;;;1.93;;
14100;SDS011;7127;49.372;8.166;2024-03-22T07:28:00;1.83;;;1.70;;
14100;SDS011;7127;49.372;8.166;2024-03-22T07:30:26;1.90;;;1.70;;
14100;SDS011;7127;49.372;8.166;2024-03-22T07:32:54;1.93;;;1.67;;
14100;SDS011;7127;49.372;8.166;2024-03-22T07:35:19;2.10;;;1.70;;
14100;SDS011;7127;49.372;8.166;2024-03-22T07:37:46;2.27;;;1.87;;
14100;SDS011;7127;49.372;8.166;2024-03-22T07:40:12;2.00;;;1.80;;
14100;SDS011;7127;49.372;8.166;2024-03-22T07:42:39;2.03;;;1.63;;
14100;SDS011;7127;49.372;8.166;2024-03-22T07:45:05;1.60;;;1.50;;
14100;SDS011;7127;49.372;8.166;2024-03-22T07:47:32;3.03;;;1.60;;
14100;SDS011;7127;49.372;8.166;2024-03-22T07:49:59;1.90;;;1.50;;
14100;SDS011;7127;49.372;8.166;2024-03-22T07:52:26;1.80;;;1.40;;
14100;SDS011;7127;49.372;8.166;2024-03-22T07:54:51;1.57;;;1.47;;
14100;SDS011;7127;49.372;8.166;2024-03-22T07:57:18;1.90;;;1.60;;
14100;SDS011;7127;49.372;8.166;2024-03-22T07:59:45;1.90;;;1.67;;
14100;SDS011;7127;49.372;8.166;2024-03-22T08:02:12;1.60;;;1.37;;
14100;SDS011;7127;49.372;8.166;2024-03-22T08:04:38;1.60;;;1.50;;
14100;SDS011;7127;49.372;8.166;2024-03-22T08:07:06;2.40;;;1.40;;
14100;SDS011;7127;49.372;8.166;2024-03-22T08:09:32;1.53;;;1.43;;
14100;SDS011;7127;49.372;8.166;2024-03-22T08:11:59;1.73;;;1.63;;
14100;SDS011;7127;49.372;8.166;2024-03-22T08:14:24;2.63;;;1.90;;
14100;SDS011;7127;49.372;8.166;2024-03-22T08:16:51;1.70;;;1.60;;
14100;SDS011;7127;49.372;8.166;2024-03-22T08:19:17;2.00;;;1.80;;
14100;SDS011;7127;49.372;8.166;2024-03-22T08:21:46;2.03;;;1.90;;
14100;SDS011;7127;49.372;8.166;2024-03-22T08:24:13;2.27;;;1.97;;
14100;SDS011;7127;49.372;8.166;2024-03-22T08:26:40;2.23;;;1.87;;
14100;SDS011;7127;49.372;8.166;2024-03-22T08:29:10;2.30;;;1.80;;
14100;SDS011;7127;49.372;8.166;2024-03-22T08:31:37;2.93;;;1.73;;
14100;SDS011;7127;49.372;8.166;2024-03-22T08:34:02;2.73;;;1.90;;
14100;SDS011;7127;49.372;8.166;2024-03-22T08:36:30;2.30;;;1.90;;
14100;SDS011;7127;49.372;8.166;2024-03-22T08:38:56;2.13;;;1.60;;
14100;SDS011;7127;49.372;8.166;2024-03-22T08:41:24;1.93;;;1.67;;
14100;SDS011;7127;49.372;8.166;2024-03-22T08:43:50;1.77;;;1.60;;
14100;SDS011;7127;49.372;8.166;2024-03-22T08:46:17;1.63;;;1.53;;
14100;SDS011;7127;49.372;8.166;2024-03-22T08:48:42;1.90;;;1.80;;
14100;SDS011;7127;49.372;8.166;2024-03-22T08:51:09;2.23;;;2.00;;
14100;SDS011;7127;49.372;8.166;2024-03-22T08:53:35;2.00;;;1.80;;
14100;SDS011;7127;49.372;8.166;2024-03-22T08:56:02;2.30;;;1.90;;
14100;SDS011;7127;49.372;8.166;2024-03-22T08:58:30;2.27;;;1.80;;
14100;SDS011;7127;49.372;8.166;2024-03-22T09:00:57;1.70;;;1.60;;
14100;SDS011;7127;49.372;8.166;2024-03-22T09:03:22;1.50;;;1.40;;
14100;SDS011;7127;49.372;8.166;2024-03-22T09:05:52;1.90;;;1.73;;
14100;SDS011;7127;49.372;8.166;2024-03-22T09:08:18;3.60;;;1.77;;
14100;SDS011;7127;49.372;8.166;2024-03-22T09:10:44;2.10;;;1.87;;
14100;SDS011;7127;49.372;8.166;2024-03-22T09:13:10;2.10;;;1.87;;
14100;SDS011;7127;49.372;8.166;2024-03-22T09:15:39;2.57;;;2.17;;
14100;SDS011;7127;49.372;8.166;2024-03-22T09:18:05;2.40;;;1.70;;
14100;SDS011;7127;49.372;8.166;2024-03-22T09:20:32;2.33;;;1.93;;
14100;SDS011;7127;49.372;8.166;2024-03-22T09:22:57;2.73;;;2.00;;
14100;SDS011;7127;49.372;8.166;2024-03-22T09:25:24;4.27;;;1.70;;
14100;SDS011;7127;49.372;8.166;2024-03-22T09:27:50;2.20;;;1.93;;
14100;SDS011;7127;49.372;8.166;2024-03-22T09:30:17;3.83;;;2.03;;
14100;SDS011;7127;49.372;8.166;2024-03-22T09:32:44;2.00;;;1.80;;
14100;SDS011;7127;49.372;8.166;2024-03-22T09:35:11;2.33;;;2.00;;
14100;SDS011;7127;49.372;8.166;2024-03-22T09:37:39;2.43;;;1.97;;
14100;SDS011;7127;49.372;8.166;2024-03-22T09:40:06;2.20;;;1.90;;
14100;SDS011;7127;49.372;8.166;2024-03-22T09:42:33;2.70;;;2.00;;
14100;SDS011;7127;49.372;8.166;2024-03-22T09:45:04;2.40;;;1.90;;
14100;SDS011;7127;49.372;8.166;2024-03-22T09:47:33;6.13;;;1.83;;
14100;SDS011;7127;49.372;8.166;2024-03-22T09:50:03;1.73;;;1.60;;
14100;SDS011;7127;49.372;8.166;2024-03-22T09:52:31;2.00;;;1.70;;
14100;SDS011;7127;49.372;8.166;2024-03-22T09:54:59;2.30;;;1.43;;
14100;SDS011;7127;49.372;8.166;2024-03-22T09:57:28;2.40;;;1.70;;
14100;SDS011;7127;49.372;8.166;2024-03-22T09:59:57;1.90;;;1.70;;
14100;SDS011;7127;49.372;8.166;2024-03-22T10:02:22;2.13;;;1.73;;
14100;SDS011;7127;49.372;8.166;2024-03-22T10:04:51;2.60;;;1.80;;
14100;SDS011;7127;49.372;8.166;2024-03-22T10:07:18;1.93;;;1.50;;
14100;SDS011;7127;49.372;8.166;2024-03-22T10:09:45;3.70;;;1.80;;
14100;SDS011;7127;49.372;8.166;2024-03-22T10:12:11;1.40;;;1.30;;
14100;SDS011;7127;49.372;8.166;2024-03-22T10:14:38;1.97;;;1.63;;
14100;SDS011;7127;49.372;8.166;2024-03-22T10:17:07;1.70;;;1.60;;
14100;SDS011;7127;49.372;8.166;2024-03-22T10:19:33;1.63;;;1.53;;
14100;SDS011;7127;49.372;8.166;2024-03-22T10:21:59;2.17;;;1.30;;
14100;SDS011;7127;49.372;8.166;2024-03-22T10:24:28;1.60;;;1.43;;
14100;SDS011;7127;49.372;8.166;2024-03-22T10:26:54;1.87;;;1.57;;
14100;SDS011;7127;49.372;8.166;2024-03-22T10:29:21;1.57;;;1.20;;
14100;SDS011;7127;49.372;8.166;2024-03-22T10:31:47;1.40;;;1.30;;
14100;SDS011;7127;49.372;8.166;2024-03-22T10:34:14;1.93;;;1.50;;
14100;SDS011;7127;49.372;8.166;2024-03-22T10:36:41;1.40;;;1.30;;
14100;SDS011;7127;49.372;8.166;2024-03-22T10:39:10;1.30;;;1.10;;
14100;SDS011;7127;49.372;8.166;2024-03-22T10:41:42;1.50;;;1.17;;
14100;SDS011;7127;49.372;8.166;2024-03-22T10:44:09;1.63;;;1.27;;
14100;SDS011;7127;49.372;8.166;2024-03-22T10:46:34;1.87;;;1.07;;
14100;SDS011;7127;49.372;8.166;2024-03-22T10:49:02;2.70;;;1.20;;
14100;SDS011;7127;49.372;8.166;2024-03-22T10:51:29;1.47;;;1.20;;
14100;SDS011;7127;49.372;8.166;2024-03-22T10:53:58;1.60;;;1.10;;
14100;SDS011;7127;49.372;8.166;2024-03-22T10:56:25;1.33;;;1.10;;
14100;SDS011;7127;49.372;8.166;2024-03-22T10:58:54;2.33;;;1.20;;
14100;SDS011;7127;49.372;8.166;2024-03-22T11:01:23;1.53;;;0.93;;
14100;SDS011;7127;49.372;8.166;2024-03-22T11:03:51;0.77;;;0.77;;
14100;SDS011;7127;49.372;8.166;2024-03-22T11:06:28;1.00;;;1.00;;
14100;SDS011;7127;49.372;8.166;2024-03-22T11:08:58;1.73;;;0.80;;
14100;SDS011;7127;49.372;8.166;2024-03-22T11:11:25;1.07;;;0.97;;
14100;SDS011;7127;49.372;8.166;2024-03-22T11:13:56;1.30;;;1.00;;
14100;SDS011;7127;49.372;8.166;2024-03-22T11:16:22;1.40;;;1.10;;
14100;SDS011;7127;49.372;8.166;2024-03-22T11:18:49;1.10;;;1.00;;
14100;SDS011;7127;49.372;8.166;2024-03-22T11:21:15;1.27;;;1.10;;
14100;SDS011;7127;49.372;8.166;2024-03-22T11:23:44;1.63;;;1.03;;
14100;SDS011;7127;49.372;8.166;2024-03-22T11:26:10;1.87;;;1.13;;
14100;SDS011;7127;49.372;8.166;2024-03-22T11:28:38;4.47;;;1.80;;
14100;SDS011;7127;49.372;8.166;2024-03-22T11:31:05;1.30;;;1.07;;
14100;SDS011;7127;49.372;8.166;2024-03-22T11:33:32;1.77;;;0.93;;
14100;SDS011;7127;49.372;8.166;2024-03-22T11:35:58;2.13;;;1.33;;
14100;SDS011;7127;49.372;8.166;2024-03-22T11:38:25;1.77;;;1.20;;
14100;SDS011;7127;49.372;8.166;2024-03-22T11:40:52;1.40;;;1.10;;
14100;SDS011;7127;49.372;8.166;2024-03-22T11:43:21;1.00;;;0.90;;
14100;SDS011;7127;49.372;8.166;2024-03-22T11:45:48;1.40;;;1.20;;
14100;SDS011;7127;49.372;8.166;2024-03-22T11:48:16;2.30;;;1.37;;
14100;SDS011;7127;49.372;8.166;2024-03-22T11:50:42;1.40;;;1.20;;
14100;SDS011;7127;49.372;8.166;2024-03-22T11:53:09;1.57;;;1.10;;
14100;SDS011;7127;49.372;8.166;2024-03-22T11:55:35;1.20;;;1.07;;
14100;SDS011;7127;49.372;8.166;2024-03-22T11:58:02;1.57;;;1.10;;
14100;SDS011;7127;49.372;8.166;2024-03-22T12:00:28;2.30;;;0.90;;
14100;SDS011;7127;49.372;8.166;2024-03-22T12:02:55;1.57;;;1.20;;
14100;SDS011;7127;49.372;8.166;2024-03-22T12:05:22;1.87;;;1.20;;
14100;SDS011;7127;49.372;8.166;2024-03-22T12:07:51;2.37;;;1.10;;
14100;SDS011;7127;49.372;8.166;2024-03-22T12:10:17;1.33;;;1.10;;
14100;SDS011;7127;49.372;8.166;2024-03-22T12:12:43;1.60;;;1.50;;
14100;SDS011;7127;49.372;8.166;2024-03-22T12:15:09;1.70;;;1.20;;
14100;SDS011;7127;49.372;8.166;2024-03-22T12:17:36;2.80;;;1.10;;
14100;SDS011;7127;49.372;8.166;2024-03-22T12:20:02;1.20;;;1.10;;
14100;SDS011;7127;49.372;8.166;2024-03-22T12:22:31;1.50;;;1.30;;
14100;SDS011;7127;49.372;8.166;2024-03-22T12:24:57;1.57;;;1.20;;
14100;SDS011;7127;49.372;8.166;2024-03-22T12:27:24;1.30;;;1.20;;
14100;SDS011;7127;49.372;8.166;2024-03-22T12:29:49;1.90;;;1.20;;
14100;SDS011;7127;49.372;8.166;2024-03-22T12:32:16;2.50;;;1.30;;
14100;SDS011;7127;49.372;8.166;2024-03-22T12:34:42;1.50;;;1.33;;
14100;SDS011;7127;49.372;8.166;2024-03-22T12:37:09;2.13;;;1.47;;
14100;SDS011;7127;49.372;8.166;2024-03-22T12:39:36;1.90;;;1.30;;
14100;SDS011;7127;49.372;8.166;2024-03-22T12:42:03;1.40;;;1.30;;
14100;SDS011;7127;49.372;8.166;2024-03-22T12:44:29;1.97;;;1.10;;
14100;SDS011;7127;49.372;8.166;2024-03-22T12:46:56;1.13;;;1.03;;
14100;SDS011;7127;49.372;8.166;2024-03-22T12:49:22;2.10;;;1.20;;
14100;SDS011;7127;49.372;8.166;2024-03-22T12:51:48;2.90;;;1.40;;
14100;SDS011;7127;49.372;8.166;2024-03-22T12:54:14;2.40;;;1.20;;
14100;SDS011;7127;49.372;8.166;2024-03-22T12:56:45;2.30;;;1.50;;
14100;SDS011;7127;49.372;8.166;2024-03-22T12:59:10;1.80;;;1.50;;
14100;SDS011;7127;49.372;8.166;2024-03-22T13:01:37;1.70;;;1.20;;
14100;SDS011;7127;49.372;8.166;2024-03-22T13:04:03;1.70;;;1.60;;
14100;SDS011;7127;49.372;8.166;2024-03-22T13:06:30;3.00;;;2.37;;
14100;SDS011;7127;49.372;8.166;2024-03-22T13:08:56;4.67;;;2.80;;
14100;SDS011;7127;49.372;8.166;2024-03-22T13:11:23;3.20;;;2.67;;
14100;SDS011;7127;49.372;8.166;2024-03-22T13:13:50;3.23;;;2.60;;
14100;SDS011;7127;49.372;8.166;2024-03-22T13:16:17;3.60;;;2.70;;
14100;SDS011;7127;49.372;8.166;2024-03-22T13:18:43;3.17;;;2.43;;
14100;SDS011;7127;49.372;8.166;2024-03-22T13:21:10;4.10;;;2.67;;
14100;SDS011;7127;49.372;8.166;2024-03-22T13:23:36;3.33;;;3.00;;
14100;SDS011;7127;49.372;8.166;2024-03-22T13:26:03;5.23;;;3.03;;
14100;SDS011;7127;49.372;8.166;2024-03-22T13:28:29;4.25;;;3.55;;
14100;SDS011;7127;49.372;8.166;2024-03-22T13:31:01;3.70;;;3.20;;
14100;SDS011;7127;49.372;8.166;2024-03-22T13:33:28;3.40;;;2.67;;
14100;SDS011;7127;49.372;8.166;2024-03-22T13:35:55;3.55;;;3.13;;
14100;SDS011;7127;49.372;8.166;2024-03-22T13:38:20;2.87;;;2.63;;
14100;SDS011;7127;49.372;8.166;2024-03-22T13:40:52;2.97;;;2.50;;
14100;SDS011;7127;49.372;8.166;2024-03-22T13:43:18;3.08;;;2.38;;
14100;SDS011;7127;49.372;8.166;2024-03-22T13:45:45;4.07;;;2.83;;
14100;SDS011;7127;49.372;8.166;2024-03-22T13:48:15;2.83;;;2.22;;
14100;SDS011;7127;49.372;8.166;2024-03-22T13:50:42;3.37;;;2.03;;
14100;SDS011;7127;49.372;8.166;2024-03-22T13:53:08;2.65;;;2.03;;
14100;SDS011;7127;49.372;8.166;2024-03-22T13:55:35;2.57;;;2.10;;
14100;SDS011;7127;49.372;8.166;2024-03-22T13:58:01;2.57;;;2.07;;
14100;SDS011;7127;49.372;8.166;2024-03-22T14:00:28;2.88;;;1.70;;
14100;SDS011;7127;49.372;8.166;2024-03-22T14:02:54;3.03;;;1.90;;
14100;SDS011;7127;49.372;8.166;2024-03-22T14:05:23;2.50;;;2.07;;
14100;SDS011;7127;49.372;8.166;2024-03-22T14:07:49;3.27;;;2.20;;
14100;SDS011;7127;49.372;8.166;2024-03-22T14:10:16;2.60;;;2.33;;
14100;SDS011;7127;49.372;8.166;2024-03-22T14:12:41;3.93;;;2.70;;
14100;SDS011;7127;49.372;8.166;2024-03-22T14:15:08;4.20;;;3.07;;
14100;SDS011;7127;49.372;8.166;2024-03-22T14:17:34;4.50;;;3.00;;
14100;SDS011;7127;49.372;8.166;2024-03-22T14:20:01;4.60;;;3.20;;
14100;SDS011;7127;49.372;8.166;2024-03-22T14:22:30;4.87;;;3.03;;
14100;SDS011;7127;49.372;8.166;2024-03-22T14:24:56;4.30;;;3.03;;
14100;SDS011;7127;49.372;8.166;2024-03-22T14:27:23;5.27;;;2.97;;
14100;SDS011;7127;49.372;8.166;2024-03-22T14:29:50;3.77;;;3.30;;
14100;SDS011;7127;49.372;8.166;2024-03-22T14:32:17;4.27;;;3.37;;
14100;SDS011;7127;49.372;8.166;2024-03-22T14:34:43;3.70;;;2.70;;
14100;SDS011;7127;49.372;8.166;2024-03-22T14:37:09;3.63;;;2.80;;
14100;SDS011;7127;49.372;8.166;2024-03-22T14:39:39;4.27;;;3.47;;
14100;SDS011;7127;49.372;8.166;2024-03-22T14:42:06;5.47;;;3.53;;
14100;SDS011;7127;49.372;8.166;2024-03-22T14:44:33;3.80;;;3.40;;
14100;SDS011;7127;49.372;8.166;2024-03-22T14:46:59;4.67;;;3.90;;
14100;SDS011;7127;49.372;8.166;2024-03-22T14:49:26;4.10;;;3.23;;
14100;SDS011;7127;49.372;8.166;2024-03-22T14:51:52;4.47;;;3.20;;
14100;SDS011;7127;49.372;8.166;2024-03-22T14:54:19;4.83;;;3.90;;
14100;SDS011;7127;49.372;8.166;2024-03-22T14:56:46;4.00;;;3.23;;